Time;durP1;ratioP1;P1;durP2;ratioP2;P2;SDS_P1;SDS_P2;PMS_P1;PMS_P2;Temp;Humidity;BMP_temperature;BMP_pressure;BME280_temperature;BME280_humidity;BME280_pressure;Samples;Min_cycle;Max_cycle;Signal;HPM_P1;HPM_P2
2022/03/08 00:00:31;;;;;;;14.93;10.30;;;21.40;53.10;;;;;;5044341;28;20538;-90
2022/03/08 00:02:58;;;;;;;15.30;11.57;;;21.40;53.20;;;;;;5053057;28;20433;-90
2022/03/08 00:05:55;;;;;;;11.77;10.37;;;21.40;53.10;;;;;;5049188;28;20413;-90
2022/03/08 00:08:21;;;;;;;14.57;10.47;;;21.40;53.10;;;;;;5059966;28;20433;-91
2022/03/08 00:10:46;;;;;;;12.07;9.90;;;21.40;53.20;;;;;;5046050;28;20493;-91
2022/03/08 00:13:12;;;;;;;13.50;11.00;;;21.40;53.20;;;;;;5055598;28;20183;-91
2022/03/08 00:15:38;;;;;;;14.07;10.53;;;21.40;53.20;;;;;;5048374;28;20641;-91
2022/03/08 00:18:04;;;;;;;13.73;11.00;;;21.40;53.20;;;;;;5051430;28;20206;-90
2022/03/08 00:20:30;;;;;;;13.93;10.13;;;21.40;53.20;;;;;;5054764;28;20175;-91
2022/03/08 00:22:57;;;;;;;14.17;10.30;;;21.40;53.20;;;;;;5046727;28;20447;-91
2022/03/08 00:25:23;;;;;;;14.37;10.07;;;21.40;53.20;;;;;;5049234;28;20421;-91
2022/03/08 00:27:49;;;;;;;14.93;10.90;;;21.40;53.20;;;;;;5046244;28;20449;-91
2022/03/08 00:30:21;;;;;;;14.77;10.20;;;21.30;53.10;;;;;;5050882;28;20453;-91
2022/03/08 00:32:48;;;;;;;13.70;11.30;;;21.30;53.10;;;;;;5047653;28;20425;-91
2022/03/08 00:35:14;;;;;;;12.30;10.10;;;21.30;53.10;;;;;;5037575;28;20441;-91
2022/03/08 00:37:40;;;;;;;17.63;9.83;;;21.30;53.10;;;;;;5068525;28;20409;-91
2022/03/08 00:40:11;;;;;;;12.80;10.13;;;21.30;53.10;;;;;;5068233;28;20428;-90
2022/03/08 00:42:37;;;;;;;11.17;9.30;;;21.30;53.10;;;;;;5063912;28;20423;-90
2022/03/08 00:45:07;;;;;;;13.47;10.40;;;21.30;53.10;;;;;;5065266;28;20457;-90
2022/03/08 00:47:36;;;;;;;14.93;10.60;;;21.30;53.10;;;;;;5044322;28;20179;-90
2022/03/08 00:50:06;;;;;;;13.50;10.17;;;21.30;53.20;;;;;;5068352;28;20452;-91
2022/03/08 00:52:33;;;;;;;14.47;9.90;;;21.30;53.10;;;;;;5043797;28;20528;-90
2022/03/08 00:54:58;;;;;;;13.43;9.93;;;21.30;53.10;;;;;;5068196;28;20425;-90
2022/03/08 00:57:24;;;;;;;11.50;8.83;;;21.30;53.10;;;;;;5069147;28;20410;-90
2022/03/08 00:59:50;;;;;;;14.97;10.27;;;21.30;53.10;;;;;;5050727;28;20194;-90
2022/03/08 01:02:16;;;;;;;16.40;10.23;;;21.30;53.20;;;;;;5068546;28;20183;-90
2022/03/08 01:04:41;;;;;;;14.83;10.13;;;21.30;53.20;;;;;;5046422;28;20183;-90
2022/03/08 01:07:07;;;;;;;14.17;10.57;;;21.30;53.10;;;;;;5067986;28;20224;-91
2022/03/08 01:09:34;;;;;;;12.27;10.03;;;21.30;53.10;;;;;;5064346;28;20198;-91
2022/03/08 01:12:00;;;;;;;12.70;9.57;;;21.30;53.10;;;;;;5042898;28;20432;-90
2022/03/08 01:14:26;;;;;;;12.60;9.10;;;21.30;53.20;;;;;;5051160;28;20430;-92
2022/03/08 01:16:52;;;;;;;15.20;9.60;;;21.30;53.20;;;;;;5066787;28;20171;-91
2022/03/08 01:19:17;;;;;;;11.93;8.73;;;21.30;53.10;;;;;;5050368;28;20445;-90
2022/03/08 01:21:43;;;;;;;13.23;9.83;;;21.30;53.20;;;;;;5045404;28;20185;-90
2022/03/08 01:24:11;;;;;;;12.93;9.07;;;21.30;53.10;;;;;;5050686;28;20206;-91
2022/03/08 01:26:37;;;;;;;15.37;9.40;;;21.30;53.10;;;;;;5066207;28;20175;-91
2022/03/08 01:29:04;;;;;;;12.97;9.53;;;21.30;53.10;;;;;;5049979;28;20453;-90
2022/03/08 01:31:29;;;;;;;11.70;8.80;;;21.30;53.10;;;;;;5050169;28;20181;-91
2022/03/08 01:33:57;;;;;;;10.93;7.73;;;21.30;53.10;;;;;;5046059;28;20477;-91
2022/03/08 01:36:24;;;;;;;11.40;8.87;;;21.30;53.10;;;;;;5066907;28;20449;-90
2022/03/08 01:38:50;;;;;;;10.43;9.00;;;21.30;53.70;;;;;;5049594;28;20420;-90
2022/03/08 01:41:16;;;;;;;13.07;8.40;;;21.30;53.10;;;;;;5049427;28;20414;-91
2022/03/08 01:43:42;;;;;;;11.10;8.50;;;21.30;53.10;;;;;;5067046;28;20468;-90
2022/03/08 01:46:08;;;;;;;10.57;9.47;;;21.20;53.10;;;;;;5068687;28;20429;-91
2022/03/08 01:48:34;;;;;;;11.00;8.90;;;21.30;53.20;;;;;;5050348;28;20194;-91
2022/03/08 01:50:59;;;;;;;13.30;9.03;;;21.20;53.10;;;;;;5034356;28;20213;-90
2022/03/08 01:53:28;;;;;;;11.50;8.53;;;21.20;53.10;;;;;;5035780;28;20582;-91
2022/03/08 01:55:54;;;;;;;11.77;9.60;;;21.20;53.10;;;;;;5066875;28;20210;-91
2022/03/08 01:58:20;;;;;;;12.20;8.30;;;21.20;53.10;;;;;;5067722;28;20440;-90
2022/03/08 02:00:45;;;;;;;11.63;8.20;;;21.20;53.10;;;;;;5034124;28;20642;-90
2022/03/08 02:06:33;;;;;;;11.70;9.00;;;21.20;53.10;;;;;;5063494;28;20229;-90
2022/03/08 02:09:00;;;;;;;13.17;9.23;;;21.20;53.20;;;;;;5065691;28;20473;-91
2022/03/08 02:11:26;;;;;;;8.90;8.00;;;21.20;53.20;;;;;;5050019;28;20194;-90
2022/03/08 02:13:55;;;;;;;11.47;9.33;;;21.20;53.20;;;;;;5050042;28;20425;-90
2022/03/08 02:16:21;;;;;;;13.83;9.00;;;21.20;53.20;;;;;;5036781;28;20206;-90
2022/03/08 02:18:47;;;;;;;11.90;9.20;;;21.20;53.20;;;;;;5047264;28;20456;-90
2022/03/08 02:21:13;;;;;;;9.40;8.10;;;21.20;53.20;;;;;;5053514;28;20493;-90
2022/03/08 02:23:39;;;;;;;9.00;6.97;;;21.20;53.20;;;;;;5048120;28;20183;-90
2022/03/08 02:26:05;;;;;;;10.20;7.70;;;21.20;53.20;;;;;;5048035;28;20250;-90
2022/03/08 02:28:31;;;;;;;9.77;7.33;;;21.20;53.20;;;;;;5047624;28;20414;-90
2022/03/08 02:30:57;;;;;;;12.23;8.40;;;21.20;53.20;;;;;;5028863;28;20422;-90
2022/03/08 02:33:23;;;;;;;12.17;8.40;;;21.20;53.20;;;;;;5046839;28;20410;-90
2022/03/08 02:35:49;;;;;;;12.47;8.93;;;21.20;53.20;;;;;;5028494;28;20180;-91
2022/03/08 02:38:14;;;;;;;11.00;8.13;;;21.20;53.20;;;;;;5029193;28;20244;-89
2022/03/08 02:40:43;;;;;;;10.17;8.40;;;21.20;53.20;;;;;;5028849;28;20414;-90
2022/03/08 02:43:12;;;;;;;11.90;7.67;;;21.20;53.80;;;;;;5029141;28;20584;-90
2022/03/08 02:45:38;;;;;;;10.67;8.20;;;21.20;53.20;;;;;;5029491;28;20419;-90
2022/03/08 02:48:07;;;;;;;9.90;8.00;;;21.20;53.20;;;;;;5029479;28;20422;-89
2022/03/08 02:50:34;;;;;;;9.90;7.77;;;21.20;53.20;;;;;;5029375;28;20477;-90
2022/03/08 02:53:01;;;;;;;10.50;8.50;;;21.20;53.20;;;;;;5046848;28;20426;-89
2022/03/08 02:55:29;;;;;;;9.57;7.67;;;21.20;53.20;;;;;;5030045;28;20420;-90
2022/03/08 02:57:55;;;;;;;9.10;8.00;;;21.20;53.20;;;;;;5045945;28;20407;-89
2022/03/08 03:00:22;;;;;;;10.37;6.87;;;21.20;53.20;;;;;;5029133;28;20414;-90
2022/03/08 03:02:48;;;;;;;10.73;8.00;;;21.20;53.20;;;;;;5052845;28;20417;-89
2022/03/08 03:05:15;;;;;;;11.70;7.93;;;21.20;53.20;;;;;;5066634;28;20413;-90
2022/03/08 03:07:41;;;;;;;11.43;8.30;;;21.20;53.20;;;;;;5048245;28;20186;-90
2022/03/08 03:10:16;;;;;;;9.70;7.53;;;21.20;53.20;;;;;;5065947;28;20525;-90
2022/03/08 03:12:42;;;;;;;9.40;7.77;;;21.20;53.20;;;;;;5028379;28;20417;-90
2022/03/08 03:15:10;;;;;;;10.90;7.80;;;21.20;53.20;;;;;;5045262;28;20424;-90
2022/03/08 03:17:36;;;;;;;9.20;7.50;;;21.10;53.10;;;;;;5047590;28;20424;-90
2022/03/08 03:20:07;;;;;;;10.37;8.13;;;21.20;53.20;;;;;;5066593;28;20779;-89
2022/03/08 03:22:33;;;;;;;7.97;6.83;;;21.20;53.20;;;;;;5036814;28;20510;-90
2022/03/08 03:24:59;;;;;;;9.00;7.23;;;21.20;53.20;;;;;;5035835;28;20418;-90
2022/03/08 03:27:25;;;;;;;9.20;7.53;;;21.10;53.10;;;;;;5048615;28;20456;-90
2022/03/08 03:29:51;;;;;;;11.07;7.73;;;21.20;53.20;;;;;;5048366;28;20457;-89
2022/03/08 03:32:16;;;;;;;8.07;6.93;;;21.10;53.10;;;;;;5051602;28;20187;-90
2022/03/08 03:34:42;;;;;;;10.57;7.87;;;21.10;53.10;;;;;;5052943;28;20233;-90
2022/03/08 03:37:08;;;;;;;12.30;8.70;;;21.10;53.10;;;;;;5051817;28;20194;-90
2022/03/08 03:39:34;;;;;;;9.90;7.17;;;21.10;53.10;;;;;;5051755;28;20678;-89
2022/03/08 03:42:00;;;;;;;9.73;7.30;;;21.10;53.10;;;;;;5069981;28;20179;-90
2022/03/08 03:44:25;;;;;;;10.10;8.10;;;21.10;53.10;;;;;;5052827;28;20451;-90
2022/03/08 03:46:51;;;;;;;8.77;6.83;;;21.10;53.10;;;;;;5069660;28;20193;-90
2022/03/08 03:49:17;;;;;;;11.00;7.77;;;21.10;53.10;;;;;;5052390;28;20539;-89
2022/03/08 03:51:43;;;;;;;10.53;7.80;;;21.10;53.10;;;;;;5052333;28;20657;-89
2022/03/08 03:54:08;;;;;;;10.17;7.23;;;21.10;53.10;;;;;;5069832;28;20186;-90
2022/03/08 04:00:09;;;;;;;9.37;7.07;;;21.10;53.10;;;;;;5048948;28;20170;-91
2022/03/08 04:02:35;;;;;;;9.80;8.07;;;21.10;53.20;;;;;;5032506;28;20417;-90
2022/03/08 04:05:01;;;;;;;11.10;6.77;;;21.10;53.20;;;;;;5049947;28;20407;-90
2022/03/08 04:07:26;;;;;;;7.67;6.70;;;21.10;53.20;;;;;;5059504;28;20183;-90
2022/03/08 04:09:52;;;;;;;9.23;6.63;;;21.10;53.20;;;;;;5069087;28;20625;-90
2022/03/08 04:12:18;;;;;;;9.10;7.43;;;21.10;53.20;;;;;;5069442;28;20170;-90
2022/03/08 04:14:44;;;;;;;9.27;7.30;;;21.10;53.80;;;;;;5052196;28;20186;-90
2022/03/08 04:17:09;;;;;;;9.60;6.60;;;21.10;53.20;;;;;;5069877;28;20170;-90
2022/03/08 04:19:35;;;;;;;10.53;6.93;;;21.10;53.20;;;;;;5051528;28;20175;-90
2022/03/08 04:22:01;;;;;;;10.40;7.97;;;21.10;53.20;;;;;;5035955;28;20188;-90
2022/03/08 04:24:27;;;;;;;8.67;6.77;;;21.10;53.20;;;;;;5031181;28;20203;-89
2022/03/08 04:26:53;;;;;;;9.27;6.63;;;21.10;53.20;;;;;;5048867;28;20183;-90
2022/03/08 04:29:19;;;;;;;10.17;6.37;;;21.10;53.20;;;;;;5033232;28;20461;-90
2022/03/08 04:31:44;;;;;;;8.67;7.77;;;21.10;53.20;;;;;;5050776;28;20548;-90
2022/03/08 04:34:10;;;;;;;8.80;6.63;;;21.10;53.20;;;;;;5068918;28;20172;-90
2022/03/08 04:36:36;;;;;;;8.57;6.80;;;21.10;53.20;;;;;;5050448;28;20183;-89
2022/03/08 04:39:03;;;;;;;12.03;7.07;;;21.10;53.20;;;;;;5043923;28;20233;-89
2022/03/08 04:41:30;;;;;;;9.37;7.33;;;21.10;53.20;;;;;;5048627;28;20179;-89
2022/03/08 04:43:55;;;;;;;8.30;6.10;;;21.10;53.10;;;;;;5056045;28;20397;-89
2022/03/08 04:46:21;;;;;;;8.83;5.90;;;21.10;53.20;;;;;;5068761;28;20443;-90
2022/03/08 04:48:47;;;;;;;6.20;5.60;;;21.10;53.20;;;;;;5068195;28;20249;-90
2022/03/08 04:51:14;;;;;;;8.27;6.50;;;21.10;53.10;;;;;;5044106;28;20195;-90
2022/03/08 04:53:40;;;;;;;8.53;6.23;;;21.10;53.10;;;;;;5051123;28;20277;-90
2022/03/08 04:56:05;;;;;;;8.57;7.07;;;21.10;53.10;;;;;;5050724;28;20417;-90
2022/03/08 04:58:31;;;;;;;8.00;5.87;;;21.10;53.20;;;;;;5050834;28;20182;-90
2022/03/08 05:00:57;;;;;;;9.70;6.53;;;21.10;53.10;;;;;;5050709;28;20537;-90
2022/03/08 05:03:22;;;;;;;7.80;5.90;;;21.10;53.10;;;;;;5050497;28;20209;-90
2022/03/08 05:09:10;;;;;;;10.47;7.33;;;21.10;53.10;;;;;;5068392;28;20225;-90
2022/03/08 05:11:36;;;;;;;8.80;6.03;;;21.00;53.10;;;;;;5050585;28;20413;-90
2022/03/08 05:14:02;;;;;;;9.47;6.17;;;21.00;53.10;;;;;;5050300;28;20186;-90
2022/03/08 05:16:30;;;;;;;6.90;5.90;;;21.00;53.10;;;;;;5050144;28;20197;-90
2022/03/08 05:18:57;;;;;;;8.17;6.50;;;21.10;53.20;;;;;;5033719;28;20437;-90
2022/03/08 05:21:23;;;;;;;8.50;6.03;;;21.10;53.10;;;;;;5030079;28;20426;-90
2022/03/08 05:23:49;;;;;;;8.53;5.93;;;21.10;53.10;;;;;;5043894;28;20449;-91
2022/03/08 05:26:15;;;;;;;8.30;6.50;;;21.00;53.10;;;;;;5049859;28;20426;-89
2022/03/08 05:28:43;;;;;;;6.87;5.90;;;21.10;53.10;;;;;;5047228;28;20501;-89
2022/03/08 05:31:10;;;;;;;8.10;5.53;;;21.00;53.10;;;;;;5049149;28;20410;-89
2022/03/08 05:33:36;;;;;;;7.83;5.47;;;21.10;53.10;;;;;;5047820;28;20776;-89
2022/03/08 05:36:03;;;;;;;6.43;5.50;;;21.00;53.10;;;;;;5046937;28;20425;-89
2022/03/08 05:38:28;;;;;;;8.00;6.07;;;21.00;53.10;;;;;;5059857;28;20186;-89
2022/03/08 05:40:54;;;;;;;7.27;5.43;;;21.00;53.10;;;;;;5051890;28;20429;-89
2022/03/08 05:43:20;;;;;;;6.90;5.20;;;21.00;53.10;;;;;;5058711;28;20171;-90
2022/03/08 05:45:46;;;;;;;6.60;5.57;;;21.00;53.10;;;;;;5048535;28;20383;-89
2022/03/08 05:48:12;;;;;;;7.87;6.10;;;21.00;53.10;;;;;;5048540;28;20209;-89
2022/03/08 05:50:37;;;;;;;7.03;5.90;;;21.00;53.10;;;;;;5050831;28;20199;-89
2022/03/08 05:53:03;;;;;;;7.83;6.13;;;21.00;53.10;;;;;;5068108;28;20445;-89
2022/03/08 05:55:29;;;;;;;6.27;5.43;;;21.00;53.10;;;;;;5069025;28;20183;-89
2022/03/08 05:57:55;;;;;;;6.13;5.50;;;21.00;53.10;;;;;;5051375;28;20420;-89
2022/03/08 06:00:21;;;;;;;7.23;5.77;;;21.00;53.10;;;;;;5068812;28;20821;-89
2022/03/08 06:03:18;;;;;;;7.63;5.13;;;21.00;53.10;;;;;;5051159;28;20221;-89
2022/03/08 06:05:44;;;;;;;7.87;5.93;;;21.00;53.10;;;;;;5068788;28;20481;-89
2022/03/08 06:08:10;;;;;;;7.10;5.03;;;21.00;53.10;;;;;;5068716;28;20412;-89
2022/03/08 06:10:36;;;;;;;6.80;5.50;;;21.00;53.10;;;;;;5050039;28;20232;-89
2022/03/08 06:13:02;;;;;;;7.83;6.00;;;21.00;53.10;;;;;;5066041;28;20702;-89
2022/03/08 06:15:29;;;;;;;7.10;5.73;;;21.00;53.10;;;;;;5049942;28;20479;-89
2022/03/08 06:17:55;;;;;;;7.00;6.13;;;21.00;53.10;;;;;;5050455;28;20447;-89
2022/03/08 06:20:21;;;;;;;6.93;5.60;;;21.00;53.20;;;;;;5067475;28;20406;-89
2022/03/08 06:22:46;;;;;;;6.90;5.20;;;21.10;53.20;;;;;;5050104;28;20258;-89
2022/03/08 06:25:12;;;;;;;8.03;6.20;;;21.10;53.20;;;;;;5068303;28;20171;-89
2022/03/08 06:27:38;;;;;;;6.83;6.13;;;21.10;53.20;;;;;;5068202;28;20202;-89
2022/03/08 06:30:05;;;;;;;8.23;5.53;;;21.10;53.20;;;;;;5049669;28;20445;-89
2022/03/08 06:32:31;;;;;;;5.90;5.30;;;21.10;53.20;;;;;;5049841;28;20175;-89
2022/03/08 06:34:57;;;;;;;7.37;5.63;;;21.10;53.20;;;;;;5065593;28;20516;-89
2022/03/08 06:37:23;;;;;;;6.93;5.50;;;21.10;53.20;;;;;;5067198;28;20407;-89
2022/03/08 06:39:49;;;;;;;7.37;5.00;;;21.10;53.20;;;;;;5049098;28;20175;-89
2022/03/08 06:42:15;;;;;;;7.83;5.53;;;21.20;53.30;;;;;;5048999;28;20424;-90
2022/03/08 06:44:41;;;;;;;6.50;5.40;;;21.20;53.30;;;;;;5049832;28;20175;-89
2022/03/08 06:47:09;;;;;;;7.30;5.07;;;21.20;53.30;;;;;;5049608;28;20410;-89
2022/03/08 06:49:38;;;;;;;7.90;5.63;;;21.20;53.30;;;;;;5049144;28;20459;-89
2022/03/08 06:52:07;;;;;;;7.47;4.93;;;21.20;53.30;;;;;;5048885;28;20438;-88
2022/03/08 06:54:33;;;;;;;7.67;5.10;;;21.20;53.30;;;;;;5049241;28;20416;-89
2022/03/08 06:56:58;;;;;;;6.20;5.00;;;21.20;53.30;;;;;;5067042;28;20477;-89
2022/03/08 06:59:25;;;;;;;6.87;5.33;;;21.20;53.20;;;;;;5049598;28;20420;-89
2022/03/08 07:01:52;;;;;;;6.90;4.67;;;21.30;53.30;;;;;;5065948;28;20691;-89
2022/03/08 07:04:18;;;;;;;9.23;5.23;;;21.30;53.20;;;;;;5049022;28;20425;-89
2022/03/08 07:06:43;;;;;;;6.63;5.47;;;21.30;53.20;;;;;;5048945;28;20428;-89
2022/03/08 07:09:10;;;;;;;5.87;4.87;;;21.30;53.20;;;;;;5066515;28;20955;-89
2022/03/08 07:11:36;;;;;;;6.47;5.07;;;21.30;53.20;;;;;;5048805;28;20984;-89
2022/03/08 07:14:04;;;;;;;5.87;4.60;;;21.30;53.20;;;;;;5048794;28;20417;-89
2022/03/08 07:16:30;;;;;;;6.30;4.60;;;21.40;53.20;;;;;;5048879;28;20429;-89
2022/03/08 07:18:55;;;;;;;5.73;5.13;;;21.40;53.20;;;;;;5048618;28;20417;-89
2022/03/08 07:21:21;;;;;;;6.13;4.77;;;21.40;53.20;;;;;;5066179;28;20175;-88
2022/03/08 07:23:47;;;;;;;6.53;4.90;;;21.40;53.10;;;;;;5064947;28;20175;-89
2022/03/08 07:26:13;;;;;;;6.47;4.90;;;21.40;53.20;;;;;;5066294;28;20242;-89
2022/03/08 07:28:39;;;;;;;5.90;4.63;;;21.40;53.10;;;;;;5064795;28;20175;-90
2022/03/08 07:31:05;;;;;;;4.87;4.00;;;21.40;53.10;;;;;;5049273;28;20672;-90
2022/03/08 07:36:54;;;;;;;5.80;4.90;;;21.50;53.10;;;;;;5066345;28;20415;-90
2022/03/08 07:39:20;;;;;;;7.47;4.70;;;21.40;53.10;;;;;;5048896;28;20417;-89
2022/03/08 07:41:48;;;;;;;6.53;5.40;;;21.40;53.10;;;;;;5066195;28;20406;-88
2022/03/08 07:44:30;;;;;;;5.37;4.60;;;21.50;53.10;;;;;;5066380;28;20527;-89
2022/03/08 07:46:57;;;;;;;5.80;5.17;;;21.50;53.10;;;;;;5048667;28;20557;-89
2022/03/08 07:49:24;;;;;;;5.13;4.23;;;21.50;53.10;;;;;;5065210;28;20464;-90
2022/03/08 07:51:52;;;;;;;7.30;4.37;;;21.50;53.10;;;;;;5064825;28;20445;-88
2022/03/08 07:54:18;;;;;;;5.30;4.30;;;21.50;53.10;;;;;;5066125;28;20406;-88
2022/03/08 07:56:46;;;;;;;5.80;4.20;;;21.50;53.10;;;;;;5065171;28;20460;-88
2022/03/08 07:59:12;;;;;;;5.30;4.00;;;21.50;53.00;;;;;;5058888;28;20422;-89
2022/03/08 08:01:37;;;;;;;6.37;4.70;;;21.50;53.00;;;;;;5048503;28;20512;-89
2022/03/08 08:04:03;;;;;;;5.30;4.60;;;21.60;53.20;;;;;;5044457;28;20184;-89
2022/03/08 08:06:29;;;;;;;6.10;4.30;;;21.50;53.00;;;;;;5062858;28;20202;-90
2022/03/08 08:08:55;;;;;;;6.10;4.90;;;21.60;53.10;;;;;;5048122;28;20457;-89
2022/03/08 08:11:21;;;;;;;5.33;4.10;;;21.60;53.10;;;;;;5048798;28;20417;-90
2022/03/08 08:13:50;;;;;;;5.27;4.63;;;21.60;53.00;;;;;;5066369;28;20413;-88
2022/03/08 08:16:17;;;;;;;4.77;4.17;;;21.60;53.00;;;;;;5048072;28;20179;-88
2022/03/08 08:18:43;;;;;;;5.23;4.70;;;21.60;53.00;;;;;;5058523;28;20452;-89
2022/03/08 08:21:09;;;;;;;6.03;4.70;;;21.60;53.00;;;;;;5045908;28;20811;-89
2022/03/08 08:23:35;;;;;;;4.80;4.00;;;21.60;53.00;;;;;;5053063;28;20415;-88
2022/03/08 08:26:01;;;;;;;5.50;4.13;;;21.60;53.00;;;;;;5070020;28;20433;-90
2022/03/08 08:28:27;;;;;;;5.10;4.30;;;21.60;53.00;;;;;;5068031;28;20246;-89
2022/03/08 08:30:52;;;;;;;4.93;3.90;;;21.60;53.00;;;;;;5068852;28;20325;-90
2022/03/08 08:33:19;;;;;;;5.43;4.50;;;21.60;53.00;;;;;;5052435;28;20317;-89
2022/03/08 08:35:45;;;;;;;5.57;4.70;;;21.60;53.00;;;;;;5051921;28;20186;-89
2022/03/08 08:38:14;;;;;;;5.00;4.50;;;21.60;53.00;;;;;;5052219;28;20417;-89
2022/03/08 08:40:40;;;;;;;5.90;4.60;;;21.60;53.00;;;;;;5042643;28;20797;-89
2022/03/08 08:43:06;;;;;;;4.70;3.47;;;21.60;53.00;;;;;;5061427;28;20518;-89
2022/03/08 08:45:34;;;;;;;5.63;4.03;;;21.60;53.00;;;;;;5050185;28;20493;-89
2022/03/08 08:48:05;;;;;;;5.40;4.13;;;21.60;53.00;;;;;;5051806;28;20485;-89
2022/03/08 08:50:31;;;;;;;6.30;4.50;;;21.60;53.00;;;;;;5051607;28;20450;-89
2022/03/08 08:52:56;;;;;;;4.73;3.73;;;21.60;53.00;;;;;;5048315;28;20509;-89
2022/03/08 08:55:25;;;;;;;5.93;4.30;;;21.60;53.00;;;;;;5051683;28;20428;-88
2022/03/08 08:57:51;;;;;;;7.37;4.53;;;21.60;53.00;;;;;;5069519;28;20250;-88
2022/03/08 09:00:17;;;;;;;5.73;4.20;;;21.60;53.00;;;;;;5051188;28;20406;-90
2022/03/08 09:02:48;;;;;;;5.10;4.00;;;21.60;53.00;;;;;;5069726;28;20183;-89
2022/03/08 09:05:14;;;;;;;4.83;3.63;;;21.60;53.00;;;;;;5052321;28;20433;-89
2022/03/08 09:07:40;;;;;;;5.03;4.13;;;21.60;53.00;;;;;;5049235;28;20433;-89
2022/03/08 09:10:07;;;;;;;4.67;3.90;;;21.60;53.00;;;;;;5037375;28;21002;-89
2022/03/08 09:12:33;;;;;;;4.00;3.30;;;21.60;53.00;;;;;;5031495;28;20450;-89
2022/03/08 09:15:01;;;;;;;4.70;4.20;;;21.60;53.00;;;;;;5049055;28;20403;-89
2022/03/08 09:17:28;;;;;;;4.83;3.80;;;21.60;53.00;;;;;;5047171;28;20425;-89
2022/03/08 09:19:56;;;;;;;4.03;3.57;;;21.60;53.00;;;;;;5050778;28;20421;-89
2022/03/08 09:22:21;;;;;;;5.83;3.80;;;21.60;53.00;;;;;;5067879;28;20447;-89
2022/03/08 09:24:47;;;;;;;4.43;3.77;;;21.60;53.00;;;;;;5040207;28;20449;-89
2022/03/08 09:27:13;;;;;;;4.77;3.60;;;21.60;53.00;;;;;;5062299;28;20191;-88
2022/03/08 09:29:39;;;;;;;5.63;3.60;;;21.60;53.00;;;;;;5049162;28;20207;-90
2022/03/08 09:32:05;;;;;;;4.40;3.67;;;21.60;53.00;;;;;;5048755;28;20648;-90
2022/03/08 09:34:34;;;;;;;5.00;3.70;;;21.60;53.60;;;;;;5046774;28;20190;-90
2022/03/08 09:37:00;;;;;;;5.83;3.57;;;21.60;53.00;;;;;;5047509;28;20509;-89
2022/03/08 09:39:26;;;;;;;4.83;3.93;;;21.60;53.00;;;;;;5046656;28;20418;-90
2022/03/08 09:41:55;;;;;;;4.20;3.80;;;21.60;53.00;;;;;;5047970;28;20442;-90
2022/03/08 09:44:22;;;;;;;5.13;3.77;;;21.60;53.00;;;;;;5063249;28;20202;-89
2022/03/08 09:46:47;;;;;;;4.00;3.40;;;21.60;53.00;;;;;;5050095;28;20831;-89
2022/03/08 09:49:13;;;;;;;4.63;4.10;;;21.60;53.00;;;;;;5068476;28;20453;-90
2022/03/08 09:51:39;;;;;;;4.93;3.43;;;21.60;53.00;;;;;;5049628;28;20252;-89
2022/03/08 09:54:05;;;;;;;4.03;3.50;;;21.60;53.00;;;;;;5049427;28;20182;-90
2022/03/08 09:56:32;;;;;;;4.03;3.53;;;21.60;53.00;;;;;;5067198;28;20227;-89
2022/03/08 09:58:59;;;;;;;4.77;3.50;;;21.60;53.00;;;;;;5068263;28;20441;-89
2022/03/08 10:01:25;;;;;;;4.20;3.70;;;21.60;53.00;;;;;;5068098;28;20414;-89
2022/03/08 10:03:51;;;;;;;4.70;3.87;;;21.60;53.00;;;;;;5066741;28;20456;-89
2022/03/08 10:06:17;;;;;;;4.83;3.30;;;21.60;53.00;;;;;;5049462;28;20429;-89
2022/03/08 10:12:17;;;;;;;5.47;3.67;;;21.60;53.00;;;;;;5068257;28;20178;-88
2022/03/08 10:14:44;;;;;;;4.03;3.57;;;21.60;53.10;;;;;;5067680;28;20426;-89
2022/03/08 10:17:39;;;;;;;6.43;3.87;;;21.60;53.10;;;;;;5067631;28;20482;-88
2022/03/08 10:20:06;;;;;;;3.87;3.17;;;21.60;53.10;;;;;;5050690;28;20425;-88
2022/03/08 10:22:37;;;;;;;3.60;3.30;;;21.60;53.10;;;;;;5050877;28;20432;-88
2022/03/08 10:25:25;;;;;;;3.70;3.30;;;21.60;53.10;;;;;;5051446;28;20440;-88
2022/03/08 10:28:17;;;;;;;4.00;3.20;;;21.60;53.10;;;;;;5049777;28;20417;-89
2022/03/08 10:30:43;;;;;;;5.20;3.90;;;21.60;53.10;;;;;;4982580;28;20483;-88
2022/03/08 10:33:09;;;;;;;4.93;3.50;;;21.60;53.10;;;;;;4971660;28;20429;-90
2022/03/08 10:35:40;;;;;;;4.00;3.60;;;21.60;53.20;;;;;;5003750;28;20189;-90
2022/03/08 10:38:14;;;;;;;5.17;3.60;;;21.60;53.10;;;;;;4980708;28;20463;-90
2022/03/08 10:40:42;;;;;;;4.00;3.20;;;21.60;53.10;;;;;;5002681;28;20451;-89
2022/03/08 10:43:13;;;;;;;3.70;3.03;;;21.60;53.20;;;;;;4985637;28;20950;-90
2022/03/08 10:46:15;;;;;;;3.73;3.30;;;21.60;53.20;;;;;;4979179;28;20420;-90
2022/03/08 10:48:41;;;;;;;4.57;3.87;;;21.60;53.20;;;;;;4982154;28;20431;-90
2022/03/08 10:54:29;;;;;;;3.77;3.20;;;21.60;53.20;;;;;;5007949;28;20228;-90
2022/03/08 10:56:56;;;;;;;4.43;3.30;;;21.60;53.20;;;;;;5007890;28;20467;-89
2022/03/08 10:59:22;;;;;;;3.93;3.20;;;21.60;53.20;;;;;;5005701;28;20431;-89
2022/03/08 11:01:48;;;;;;;5.00;3.57;;;21.60;53.30;;;;;;4991066;28;20424;-89
2022/03/08 11:04:21;;;;;;;4.30;3.87;;;21.60;53.20;;;;;;4991713;28;20428;-90
2022/03/08 11:06:51;;;;;;;6.53;3.60;;;21.60;53.20;;;;;;5010357;28;20424;-88
2022/03/08 11:09:22;;;;;;;6.23;3.80;;;21.60;53.20;;;;;;5051439;28;20938;-90
2022/03/08 11:11:48;;;;;;;5.57;3.70;;;21.60;53.20;;;;;;5068431;28;20397;-89
2022/03/08 11:14:15;;;;;;;7.30;3.63;;;21.60;53.20;;;;;;5065605;28;20414;-89
2022/03/08 11:16:42;;;;;;;5.20;3.93;;;21.60;53.20;;;;;;5045092;28;20422;-89
2022/03/08 11:19:10;;;;;;;11.60;5.60;;;21.60;53.20;;;;;;5050577;28;20451;-88
2022/03/08 11:21:37;;;;;;;8.57;4.83;;;21.60;53.20;;;;;;5032000;28;20438;-90
2022/03/08 11:24:04;;;;;;;9.97;5.10;;;21.60;53.30;;;;;;5048759;28;20429;-89
2022/03/08 11:26:32;;;;;;;7.43;3.83;;;21.60;53.20;;;;;;5033748;28;20452;-89
2022/03/08 11:28:59;;;;;;;6.87;5.10;;;21.60;53.20;;;;;;5031069;28;20462;-89
2022/03/08 11:31:31;;;;;;;7.30;4.40;;;21.60;53.30;;;;;;5038783;28;20794;-90
2022/03/08 11:34:10;;;;;;;7.70;5.30;;;21.60;53.30;;;;;;5044844;28;20430;-90
2022/03/08 11:36:48;;;;;;;7.83;5.63;;;21.60;53.30;;;;;;5057042;28;20514;-89
2022/03/08 11:39:23;;;;;;;9.93;5.10;;;21.60;53.30;;;;;;5057769;28;20468;-90
2022/03/08 11:41:59;;;;;;;9.40;5.57;;;21.60;53.30;;;;;;5044951;28;20434;-90
2022/03/08 11:44:33;;;;;;;18.87;8.20;;;21.60;53.40;;;;;;5034844;28;20498;-89
2022/03/08 11:47:12;;;;;;;27.07;11.00;;;21.60;53.40;;;;;;5029263;28;20430;-88
2022/03/08 11:49:44;;;;;;;20.50;10.47;;;21.60;53.40;;;;;;5028118;28;20912;-90
2022/03/08 11:52:18;;;;;;;25.00;11.37;;;21.60;53.50;;;;;;5065380;28;20441;-89
2022/03/08 11:54:53;;;;;;;25.23;14.40;;;21.60;53.50;;;;;;5035727;28;20426;-90
2022/03/08 11:57:47;;;;;;;27.37;14.23;;;21.60;53.50;;;;;;5045929;28;20447;-89
2022/03/08 12:00:36;;;;;;;32.73;15.37;;;21.60;53.60;;;;;;5048405;28;20437;-89
2022/03/08 12:03:08;;;;;;;33.93;19.80;;;21.60;53.60;;;;;;5044018;28;20445;-90
2022/03/08 12:06:07;;;;;;;40.07;16.77;;;21.60;53.70;;;;;;5038725;28;20432;-90
2022/03/08 12:08:44;;;;;;;32.67;17.10;;;21.60;53.70;;;;;;5013525;28;20430;-89
2022/03/08 12:11:29;;;;;;;39.20;18.50;;;21.60;53.70;;;;;;5070040;28;20429;-88
2022/03/08 12:14:01;;;;;;;41.20;19.97;;;21.50;53.60;;;;;;5070310;28;20443;-89
2022/03/08 12:16:27;;;;;;;41.80;19.03;;;21.50;53.60;;;;;;5044508;28;20445;-89
2022/03/08 12:18:57;;;;;;;37.27;20.00;;;21.50;53.60;;;;;;5070564;28;20410;-88
2022/03/08 12:21:23;;;;;;;39.63;18.50;;;21.50;53.60;;;;;;5044641;28;20847;-89
2022/03/08 12:23:59;;;;;;;35.50;17.03;;;21.50;53.60;;;;;;5062012;28;20410;-90
2022/03/08 12:26:51;;;;;;;36.90;18.80;;;21.60;53.70;;;;;;5053831;28;20492;-89
2022/03/08 12:29:22;;;;;;;41.60;19.73;;;21.60;53.70;;;;;;5053281;28;20448;-89
2022/03/08 12:31:57;;;;;;;41.13;18.00;;;21.60;53.70;;;;;;5068762;28;20421;-89
2022/03/08 12:34:45;;;;;;;32.47;18.40;;;21.50;53.60;;;;;;5069694;28;20440;-90
2022/03/08 12:37:25;;;;;;;41.27;19.20;;;21.60;53.70;;;;;;5069820;28;20424;-89
2022/03/08 12:40:08;;;;;;;29.77;16.50;;;21.60;53.70;;;;;;5069085;28;20401;-90
2022/03/08 12:42:49;;;;;;;44.73;18.57;;;21.50;53.60;;;;;;5069105;28;20436;-88
2022/03/08 12:45:18;;;;;;;35.57;16.97;;;21.60;53.70;;;;;;5052420;28;20405;-89
2022/03/08 12:47:50;;;;;;;35.73;17.83;;;21.50;53.60;;;;;;5052976;28;20418;-89
2022/03/08 12:50:19;;;;;;;35.87;18.90;;;21.50;53.60;;;;;;5053714;28;20468;-89
2022/03/08 12:52:54;;;;;;;27.53;15.63;;;21.60;53.70;;;;;;5055087;28;20831;-90
2022/03/08 12:55:28;;;;;;;34.27;16.37;;;21.60;53.70;;;;;;5053096;28;20428;-89
2022/03/08 12:57:55;;;;;;;30.07;16.23;;;21.60;53.70;;;;;;5072119;28;20417;-89
2022/03/08 13:00:25;;;;;;;32.37;17.20;;;21.60;53.70;;;;;;5072514;28;20459;-89
2022/03/08 13:02:54;;;;;;;34.43;16.90;;;21.60;53.70;;;;;;5069095;28;20424;-88
2022/03/08 13:05:33;;;;;;;36.87;16.77;;;21.60;53.70;;;;;;5072265;28;20416;-89